createdAt,value
2018-12-14T00:01:44.589Z,17.70
2018-12-14T00:04:13.062Z,17.70
2018-12-14T00:06:41.582Z,17.70
2018-12-14T00:09:10.204Z,17.70
2018-12-14T00:11:38.681Z,17.60
2018-12-14T00:14:07.187Z,17.60
2018-12-14T00:16:35.791Z,17.50
2018-12-14T00:19:04.306Z,17.50
2018-12-14T00:21:32.819Z,17.40
2018-12-14T00:24:01.414Z,17.40
2018-12-14T00:26:29.891Z,17.40
2018-12-14T00:28:58.381Z,17.40
2018-12-14T00:31:26.859Z,17.30
2018-12-14T00:33:55.348Z,17.30
2018-12-14T00:36:23.839Z,17.20
2018-12-14T00:38:52.555Z,17.20
2018-12-14T00:41:21.152Z,17.20
2018-12-14T00:43:49.643Z,17.20
2018-12-14T00:46:18.115Z,17.10
2018-12-14T00:48:46.994Z,17.10
2018-12-14T00:51:15.751Z,17.10
2018-12-14T00:53:44.215Z,17.00
2018-12-14T00:56:12.687Z,17.00
2018-12-14T00:58:41.251Z,17.00
2018-12-14T01:01:09.726Z,17.00
2018-12-14T01:03:38.194Z,16.90
2018-12-14T01:06:06.850Z,16.90
2018-12-14T01:08:35.338Z,16.90
2018-12-14T01:11:03.818Z,16.80
2018-12-14T01:13:32.344Z,16.70
2018-12-14T01:16:00.999Z,16.70
2018-12-14T01:18:29.499Z,16.70
2018-12-14T01:20:58.003Z,16.70
2018-12-14T01:23:26.507Z,16.70
2018-12-14T01:25:54.991Z,16.70
2018-12-14T01:28:23.611Z,16.70
2018-12-14T01:30:52.109Z,16.70
2018-12-14T01:33:20.595Z,16.70
2018-12-14T01:35:49.112Z,16.70
2018-12-14T01:38:17.594Z,16.80
2018-12-14T01:40:46.103Z,16.70
2018-12-14T01:43:14.590Z,16.80
2018-12-14T01:45:43.082Z,16.80
2018-12-14T01:48:11.565Z,16.80
2018-12-14T01:50:40.055Z,16.80
2018-12-14T01:53:08.578Z,16.80
2018-12-14T01:55:37.067Z,16.80
2018-12-14T01:58:05.555Z,16.70
2018-12-14T02:00:34.055Z,16.70
2018-12-14T02:03:02.670Z,16.70
2018-12-14T02:05:31.163Z,16.70
2018-12-14T02:07:59.910Z,16.70
2018-12-14T02:10:28.399Z,16.70
2018-12-14T02:12:56.936Z,16.60
2018-12-14T02:15:25.620Z,16.60
2018-12-14T02:17:54.159Z,16.60
2018-12-14T02:20:22.890Z,16.50
2018-12-14T02:22:51.480Z,16.50
2018-12-14T02:25:19.957Z,16.50
2018-12-14T02:27:48.502Z,16.50
2018-12-14T02:30:28.160Z,16.50
2018-12-14T02:32:56.630Z,16.40
2018-12-14T02:35:25.368Z,16.40
2018-12-14T02:37:54.128Z,16.40
2018-12-14T02:40:22.713Z,16.30
2018-12-14T02:42:51.539Z,16.30
2018-12-14T02:45:20.039Z,16.30
2018-12-14T02:47:48.530Z,16.20
2018-12-14T02:50:17.064Z,16.30
2018-12-14T02:52:45.556Z,16.30
2018-12-14T02:55:14.287Z,16.30
2018-12-14T02:57:42.771Z,16.30
2018-12-14T03:00:11.391Z,16.30
2018-12-14T03:02:39.975Z,16.30
2018-12-14T03:05:08.715Z,16.30
2018-12-14T03:07:37.328Z,16.30
2018-12-14T03:10:06.527Z,16.30
2018-12-14T03:12:35.166Z,16.30
2018-12-14T03:15:04.046Z,16.30
2018-12-14T03:17:32.515Z,16.30
2018-12-14T03:20:01.015Z,16.30
2018-12-14T03:22:30.173Z,16.30
2018-12-14T03:24:58.689Z,16.30
2018-12-14T03:27:27.316Z,16.40
2018-12-14T03:29:55.931Z,16.30
2018-12-14T03:32:24.440Z,16.30
2018-12-14T03:34:52.919Z,16.30
2018-12-14T03:37:21.403Z,16.20
2018-12-14T03:39:49.907Z,16.20
2018-12-14T03:42:18.387Z,16.20
2018-12-14T03:44:47.018Z,16.20
2018-12-14T03:47:15.518Z,16.20
2018-12-14T03:49:44.028Z,16.20
2018-12-14T03:52:12.506Z,16.20
2018-12-14T03:54:41.100Z,16.20
2018-12-14T03:57:09.909Z,16.20
2018-12-14T03:59:38.624Z,16.10
2018-12-14T04:02:07.271Z,16.10
2018-12-14T04:04:35.762Z,16.10
2018-12-14T04:07:04.554Z,16.10
2018-12-14T04:09:33.038Z,16.00
2018-12-14T04:12:01.646Z,16.00
2018-12-14T04:14:30.393Z,16.00
2018-12-14T04:16:58.895Z,16.00
2018-12-14T04:19:27.508Z,16.00
2018-12-14T04:21:56.038Z,16.00
2018-12-14T04:24:24.697Z,16.00
2018-12-14T04:26:53.185Z,15.90
2018-12-14T04:29:21.672Z,16.00
2018-12-14T04:31:50.151Z,16.00
2018-12-14T04:34:18.635Z,16.00
2018-12-14T04:36:47.105Z,16.00
2018-12-14T04:39:15.766Z,16.00
2018-12-14T04:41:44.254Z,16.00
2018-12-14T04:44:12.726Z,16.10
2018-12-14T04:46:41.211Z,16.10
2018-12-14T04:49:09.683Z,16.10
2018-12-14T04:51:38.269Z,16.10
2018-12-14T04:54:06.755Z,16.10
2018-12-14T04:56:35.239Z,16.00
2018-12-14T04:59:03.863Z,16.10
2018-12-14T05:01:32.503Z,16.10
2018-12-14T05:04:00.987Z,16.00
2018-12-14T05:06:29.487Z,16.00
2018-12-14T05:08:57.960Z,16.00
2018-12-14T05:11:26.568Z,15.90
2018-12-14T05:13:55.083Z,15.90
2018-12-14T05:16:23.554Z,15.90
2018-12-14T05:18:52.265Z,15.90
2018-12-14T05:21:21.175Z,15.90
2018-12-14T05:23:49.848Z,15.90
2018-12-14T05:26:18.346Z,15.90
2018-12-14T05:28:46.982Z,15.90
2018-12-14T05:31:15.463Z,15.80
2018-12-14T05:33:43.971Z,15.80
2018-12-14T05:36:12.456Z,15.80
2018-12-14T05:38:40.947Z,15.70
2018-12-14T05:41:09.447Z,15.70
2018-12-14T05:43:37.934Z,15.70
2018-12-14T05:46:06.415Z,15.70
2018-12-14T05:48:35.823Z,15.70
2018-12-14T05:51:04.318Z,15.70
2018-12-14T05:53:32.857Z,15.90
2018-12-14T05:56:01.591Z,15.90
2018-12-14T05:58:30.218Z,15.90
2018-12-14T06:00:58.707Z,15.90
2018-12-14T06:03:27.191Z,15.90
2018-12-14T06:05:55.795Z,15.80
2018-12-14T06:08:24.422Z,15.80
2018-12-14T06:10:52.963Z,15.80
2018-12-14T06:14:50.630Z,15.80
2018-12-14T06:17:19.239Z,15.80
2018-12-14T06:19:47.715Z,15.80
2018-12-14T06:22:16.382Z,15.80
2018-12-14T06:24:44.974Z,15.90
2018-12-14T06:27:13.467Z,15.90
2018-12-14T06:29:41.960Z,15.90
2018-12-14T06:32:10.467Z,15.90
2018-12-14T06:34:39.020Z,15.90
2018-12-14T06:37:08.142Z,15.90
2018-12-14T06:39:36.651Z,15.70
2018-12-14T06:42:05.487Z,15.50
2018-12-14T06:44:33.999Z,15.50
2018-12-14T06:47:02.683Z,15.50
2018-12-14T06:49:31.171Z,15.50
2018-12-14T06:52:00.002Z,15.60
2018-12-14T06:54:28.539Z,15.70
2018-12-14T06:56:57.226Z,16.00
2018-12-14T06:59:26.045Z,16.00
2018-12-14T07:01:54.527Z,16.00
2018-12-14T07:04:23.035Z,16.00
2018-12-14T07:06:51.647Z,16.00
2018-12-14T07:09:20.136Z,16.00
2018-12-14T07:11:48.621Z,15.90
2018-12-14T07:14:17.106Z,15.90
2018-12-14T07:16:45.589Z,15.90
2018-12-14T07:19:14.211Z,15.80
2018-12-14T07:21:42.694Z,15.80
2018-12-14T07:24:11.725Z,15.80
2018-12-14T07:26:40.460Z,15.80
2018-12-14T07:29:09.174Z,15.80
2018-12-14T07:31:37.674Z,15.70
2018-12-14T07:34:06.290Z,15.70
2018-12-14T07:36:34.775Z,15.70
2018-12-14T07:39:03.959Z,15.60
2018-12-14T07:41:32.501Z,15.60
2018-12-14T07:44:01.374Z,15.70
2018-12-14T07:46:29.874Z,15.70
2018-12-14T07:48:58.575Z,15.70
2018-12-14T07:51:27.938Z,15.70
2018-12-14T07:53:56.632Z,15.70
2018-12-14T07:56:26.171Z,15.70
2018-12-14T07:58:55.395Z,15.80
2018-12-14T08:01:24.009Z,15.80
2018-12-14T08:06:45.858Z,15.80
2018-12-14T08:09:14.351Z,15.80
2018-12-14T08:11:42.939Z,15.90
2018-12-14T08:14:11.435Z,15.90
2018-12-14T08:16:39.935Z,15.90
2018-12-14T08:19:08.442Z,15.80
2018-12-14T08:21:37.187Z,15.90
2018-12-14T08:24:05.743Z,15.80
2018-12-14T08:26:34.279Z,15.80
2018-12-14T08:29:02.815Z,15.70
2018-12-14T08:31:31.319Z,15.70
2018-12-14T08:33:59.821Z,15.70
2018-12-14T08:36:28.327Z,15.70
2018-12-14T08:38:56.835Z,15.70
2018-12-14T08:41:25.338Z,15.60
2018-12-14T08:43:53.876Z,15.70
2018-12-14T08:46:22.415Z,15.60
2018-12-14T08:48:50.915Z,15.60
2018-12-14T08:51:19.432Z,15.60
2018-12-14T08:53:48.079Z,15.60
2018-12-14T08:56:20.778Z,15.60
2018-12-14T08:58:52.902Z,15.60
2018-12-14T09:01:32.198Z,15.50
2018-12-14T09:04:00.842Z,15.60
2018-12-14T09:06:29.527Z,15.60
2018-12-14T09:08:58.071Z,15.60
2018-12-14T09:11:26.598Z,15.60
2018-12-14T09:13:55.139Z,15.60
2018-12-14T09:16:23.659Z,15.60
2018-12-14T09:18:52.162Z,15.60
2018-12-14T09:21:20.670Z,15.60
2018-12-14T09:23:49.360Z,15.60
2018-12-14T09:26:18.032Z,15.70
2018-12-14T09:28:46.731Z,15.70
2018-12-14T09:31:16.163Z,15.70
2018-12-14T09:33:44.666Z,15.80
2018-12-14T09:36:13.179Z,15.80
2018-12-14T09:38:41.678Z,15.80
2018-12-14T09:41:16.028Z,15.80
2018-12-14T09:43:40.703Z,15.80
2018-12-14T09:46:09.291Z,15.80
2018-12-14T09:48:37.894Z,15.80
2018-12-14T09:51:12.154Z,15.80
2018-12-14T09:53:37.062Z,15.80
2018-12-14T09:56:05.679Z,15.70
2018-12-14T09:58:34.163Z,15.80
2018-12-14T10:01:02.655Z,15.80
2018-12-14T10:03:31.704Z,15.80
2018-12-14T10:06:00.240Z,15.70
2018-12-14T10:08:29.019Z,15.70
2018-12-14T10:10:58.054Z,15.70
2018-12-14T10:13:26.829Z,15.70
2018-12-14T10:15:55.762Z,15.70
2018-12-14T10:18:24.234Z,15.70
2018-12-14T10:20:52.712Z,15.60
2018-12-14T10:23:21.319Z,15.60
2018-12-14T10:25:49.831Z,15.60
2018-12-14T10:28:18.306Z,15.60
2018-12-14T10:30:46.922Z,15.60
2018-12-14T10:33:15.618Z,15.50
2018-12-14T10:35:44.222Z,15.60
2018-12-14T10:38:12.726Z,15.60
2018-12-14T10:40:41.207Z,15.60
2018-12-14T10:43:09.842Z,15.60
2018-12-14T10:45:38.488Z,15.60
2018-12-14T10:48:07.125Z,15.60
2018-12-14T10:50:39.625Z,15.60
2018-12-14T10:53:12.242Z,15.70
2018-12-14T10:55:41.267Z,15.70
2018-12-14T10:58:09.908Z,15.70
2018-12-14T11:00:43.810Z,15.70
2018-12-14T11:03:12.306Z,15.80
2018-12-14T11:05:40.848Z,15.70
2018-12-14T11:08:09.349Z,15.70
2018-12-14T11:10:37.851Z,15.70
2018-12-14T11:13:06.354Z,15.60
2018-12-14T11:15:40.324Z,15.60
2018-12-14T11:18:08.868Z,15.50
2018-12-14T11:20:37.415Z,15.50
2018-12-14T11:23:05.945Z,15.70
2018-12-14T11:25:34.539Z,15.70
2018-12-14T11:28:03.077Z,15.80
2018-12-14T11:30:31.966Z,15.80
2018-12-14T11:33:00.618Z,15.70
2018-12-14T11:35:29.179Z,15.60
2018-12-14T11:37:57.737Z,15.70
2018-12-14T11:40:26.271Z,15.60
2018-12-14T11:42:54.853Z,15.60
2018-12-14T11:45:23.495Z,15.60
2018-12-14T11:47:52.007Z,15.60
2018-12-14T11:50:20.551Z,15.50
2018-12-14T11:52:49.082Z,15.50
2018-12-14T11:55:17.847Z,15.50
2018-12-14T11:57:46.647Z,15.40
2018-12-14T12:00:15.571Z,15.50
2018-12-14T12:02:44.339Z,15.50
2018-12-14T12:05:13.007Z,15.50
2018-12-14T12:07:42.680Z,15.50
2018-12-14T12:10:11.626Z,15.50
2018-12-14T12:12:40.452Z,15.50
2018-12-14T12:15:09.723Z,15.50
2018-12-14T12:17:39.587Z,15.50
2018-12-14T12:20:09.138Z,15.50
2018-12-14T12:22:37.679Z,15.60
2018-12-14T12:25:06.255Z,15.60
2018-12-14T12:27:35.052Z,15.60
2018-12-14T12:30:04.484Z,15.60
2018-12-14T12:32:33.152Z,15.60
2018-12-14T12:35:01.921Z,15.60
2018-12-14T12:37:30.579Z,15.60
2018-12-14T12:39:59.122Z,15.70
2018-12-14T12:42:27.925Z,15.70
2018-12-14T12:44:56.603Z,15.70
2018-12-14T12:47:25.140Z,15.70
2018-12-14T12:49:53.805Z,15.60
2018-12-14T12:52:22.343Z,15.60
2018-12-14T12:54:51.115Z,15.60
2018-12-14T12:57:19.659Z,15.50
2018-12-14T12:59:48.197Z,15.60
2018-12-14T13:02:16.761Z,15.50
2018-12-14T13:04:45.592Z,15.50
2018-12-14T13:07:14.131Z,15.50
2018-12-14T13:09:42.671Z,15.50
2018-12-14T13:12:11.222Z,15.40
2018-12-14T13:14:40.215Z,15.40
2018-12-14T13:17:09.059Z,15.40
2018-12-14T13:19:37.609Z,15.30
2018-12-14T13:22:06.187Z,15.30
2018-12-14T13:24:34.974Z,15.30
2018-12-14T13:27:03.604Z,15.30
2018-12-14T13:29:32.137Z,15.30
2018-12-14T13:32:00.724Z,15.30
2018-12-14T13:34:29.259Z,15.30
2018-12-14T13:36:57.817Z,15.30
2018-12-14T13:39:26.347Z,15.30
2018-12-14T13:41:54.931Z,15.30
2018-12-14T13:44:23.865Z,15.30
2018-12-14T13:46:52.555Z,15.40
2018-12-14T13:49:21.193Z,15.40
2018-12-14T13:51:49.670Z,15.40
2018-12-14T13:54:18.345Z,15.40
2018-12-14T13:56:46.852Z,15.40
2018-12-14T13:59:15.331Z,15.40
2018-12-14T14:01:43.935Z,15.50
2018-12-14T14:04:12.422Z,15.40
2018-12-14T14:06:40.926Z,15.50
2018-12-14T14:09:09.431Z,15.50
2018-12-14T14:11:37.946Z,15.40
2018-12-14T14:14:06.783Z,15.40
2018-12-14T14:16:35.267Z,15.30
2018-12-14T14:19:03.794Z,15.30
2018-12-14T14:21:32.477Z,15.20
2018-12-14T14:24:01.238Z,15.20
2018-12-14T14:26:30.099Z,15.20
2018-12-14T14:28:58.574Z,15.20
2018-12-14T14:31:27.112Z,15.10
2018-12-14T14:33:55.602Z,15.10
2018-12-14T14:36:24.107Z,15.10
2018-12-14T14:38:52.945Z,15.10
2018-12-14T14:41:21.703Z,15.10
2018-12-14T14:43:50.187Z,15.10
2018-12-14T14:46:18.667Z,15.00
2018-12-14T14:48:47.165Z,15.00
2018-12-14T14:51:16.216Z,15.00
2018-12-14T14:53:44.815Z,15.00
2018-12-14T14:56:13.306Z,15.00
2018-12-14T14:58:41.808Z,15.00
2018-12-14T15:01:10.300Z,14.90
2018-12-14T15:03:38.938Z,14.90
2018-12-14T15:06:07.434Z,15.00
2018-12-14T15:08:35.931Z,15.00
2018-12-14T15:11:04.656Z,15.00
2018-12-14T15:13:33.417Z,15.00
2018-12-14T15:16:02.161Z,15.00
2018-12-14T15:18:30.675Z,15.00
2018-12-14T15:20:59.203Z,15.10
2018-12-14T15:23:27.671Z,15.00
2018-12-14T15:25:56.151Z,15.00
2018-12-14T15:28:24.656Z,15.00
2018-12-14T15:30:53.149Z,15.00
2018-12-14T15:33:21.640Z,15.10
2018-12-14T15:35:50.131Z,15.00
2018-12-14T15:38:18.643Z,15.00
2018-12-14T15:40:47.119Z,15.00
2018-12-14T15:43:15.607Z,15.00
2018-12-14T15:45:44.090Z,15.00
2018-12-14T15:48:12.606Z,15.00
2018-12-14T15:50:41.118Z,15.00
2018-12-14T15:53:09.616Z,14.90
2018-12-14T15:55:38.110Z,14.90
2018-12-14T15:58:06.610Z,14.90
2018-12-14T16:00:35.350Z,14.90
2018-12-14T16:03:04.006Z,14.90
2018-12-14T16:05:32.507Z,14.80
2018-12-14T16:08:01.027Z,14.80
2018-12-14T16:10:29.521Z,14.80
2018-12-14T16:12:58.016Z,14.80
2018-12-14T16:15:26.495Z,14.80
2018-12-14T16:17:55.003Z,14.80
2018-12-14T16:20:23.697Z,14.80
2018-12-14T16:22:52.211Z,14.80
2018-12-14T16:25:20.719Z,14.80
2018-12-14T16:27:49.190Z,14.80
2018-12-14T16:30:17.672Z,14.80
2018-12-14T16:32:46.151Z,14.90
2018-12-14T16:35:14.711Z,14.90
2018-12-14T16:37:43.330Z,14.90
2018-12-14T16:40:11.839Z,14.90
2018-12-14T16:42:40.511Z,14.90
2018-12-14T16:45:09.124Z,15.00
2018-12-14T16:47:37.605Z,14.90
2018-12-14T16:50:06.307Z,14.90
2018-12-14T16:52:34.911Z,15.00
2018-12-14T16:55:03.742Z,15.00
2018-12-14T16:57:32.415Z,15.00
2018-12-14T17:00:00.935Z,14.90
2018-12-14T17:02:29.422Z,14.90
2018-12-14T17:04:57.914Z,14.90
2018-12-14T17:07:26.391Z,14.90
2018-12-14T17:09:54.895Z,14.90
2018-12-14T17:12:23.395Z,14.90
2018-12-14T17:14:51.901Z,14.90
2018-12-14T17:17:20.424Z,14.90
2018-12-14T17:19:49.096Z,14.90
2018-12-14T17:22:17.579Z,14.90
2018-12-14T17:24:46.059Z,14.90
2018-12-14T17:27:14.547Z,14.90
2018-12-14T17:29:43.202Z,15.00
2018-12-14T17:32:11.674Z,15.00
2018-12-14T17:34:40.303Z,15.10
2018-12-14T17:37:08.895Z,15.20
2018-12-14T17:39:37.403Z,15.30
2018-12-14T17:42:05.903Z,15.30
2018-12-14T17:44:34.719Z,15.40
2018-12-14T17:47:03.358Z,15.50
2018-12-14T17:49:31.839Z,15.50
2018-12-14T17:52:00.374Z,15.60
2018-12-14T17:54:28.871Z,15.60
2018-12-14T17:56:57.723Z,15.70
2018-12-14T17:59:26.256Z,15.70
2018-12-14T18:01:54.778Z,15.80
2018-12-14T18:04:23.331Z,15.80
2018-12-14T18:06:51.861Z,15.90
2018-12-14T18:09:20.431Z,16.00
2018-12-14T18:11:49.042Z,16.00
2018-12-14T18:14:17.531Z,16.10
2018-12-14T18:16:46.343Z,16.10
2018-12-14T18:19:14.970Z,16.30
2018-12-14T18:21:43.522Z,16.10
2018-12-14T18:24:12.129Z,15.80
2018-12-14T18:26:40.619Z,15.70
2018-12-14T18:29:09.086Z,15.80
2018-12-14T18:31:37.582Z,16.20
2018-12-14T18:34:06.246Z,16.40
2018-12-14T18:36:34.742Z,16.50
2018-12-14T18:39:04.299Z,16.50
2018-12-14T18:41:32.819Z,16.50
2018-12-14T18:44:01.315Z,16.50
2018-12-14T18:46:29.935Z,16.50
2018-12-14T18:48:58.474Z,16.50
2018-12-14T18:51:27.106Z,16.50
2018-12-14T18:53:59.687Z,16.50
2018-12-14T18:56:29.167Z,16.50
2018-12-14T18:58:58.351Z,16.60
2018-12-14T19:01:26.975Z,16.60
2018-12-14T19:03:56.851Z,16.60
2018-12-14T19:06:25.459Z,16.60
2018-12-14T19:08:54.453Z,16.50
2018-12-14T19:11:22.938Z,16.60
2018-12-14T19:13:51.413Z,16.60
2018-12-14T19:16:19.906Z,16.50
2018-12-14T19:18:48.399Z,16.50
2018-12-14T19:21:16.874Z,16.50
2018-12-14T19:23:45.493Z,16.60
2018-12-14T19:26:14.202Z,16.60
2018-12-14T19:28:42.721Z,16.70
2018-12-14T19:31:11.320Z,16.70
2018-12-14T19:33:39.859Z,16.80
2018-12-14T19:36:08.361Z,16.80
2018-12-14T19:38:36.859Z,16.90
2018-12-14T19:41:05.395Z,16.90
2018-12-14T19:43:33.894Z,17.00
2018-12-14T19:46:06.305Z,17.00
2018-12-14T19:48:33.031Z,17.10
2018-12-14T19:51:01.519Z,17.10
2018-12-14T19:53:30.162Z,17.20
2018-12-14T19:55:58.654Z,17.10
2018-12-14T19:58:27.154Z,17.10
2018-12-14T20:00:55.657Z,17.20
2018-12-14T20:03:24.143Z,17.20
2018-12-14T20:05:52.771Z,17.20
2018-12-14T20:08:21.298Z,17.30
2018-12-14T20:10:50.800Z,17.30
2018-12-14T20:13:19.288Z,17.30
2018-12-14T20:15:47.822Z,17.40
2018-12-14T20:18:16.597Z,17.40
2018-12-14T20:20:45.075Z,17.40
2018-12-14T20:23:13.574Z,17.50
2018-12-14T20:25:42.059Z,17.50
2018-12-14T20:28:10.542Z,17.50
2018-12-14T20:30:39.026Z,17.50
2018-12-14T20:33:07.537Z,17.50
2018-12-14T20:35:36.155Z,17.50
2018-12-14T20:38:04.872Z,17.50
2018-12-14T20:40:33.375Z,17.50
2018-12-14T20:43:01.861Z,17.50
2018-12-14T20:45:30.346Z,17.50
2018-12-14T20:47:59.038Z,17.50
2018-12-14T20:50:27.538Z,17.50
2018-12-14T20:52:56.014Z,17.40
2018-12-14T20:55:24.524Z,17.50
2018-12-14T20:57:53.015Z,17.50
2018-12-14T21:00:21.755Z,17.60
2018-12-14T21:02:50.251Z,17.60
2018-12-14T21:05:18.859Z,17.70
2018-12-14T21:07:47.352Z,17.70
2018-12-14T21:10:15.842Z,17.70
2018-12-14T21:12:44.342Z,17.80
2018-12-14T21:15:12.973Z,17.80
2018-12-14T21:17:41.641Z,17.90
2018-12-14T21:20:10.142Z,17.90
2018-12-14T21:22:38.638Z,18.00
2018-12-14T21:25:07.131Z,18.00
2018-12-14T21:27:35.632Z,18.00
2018-12-14T21:30:05.976Z,18.00
2018-12-14T21:32:34.463Z,17.90
2018-12-14T21:35:03.095Z,18.00
2018-12-14T21:37:31.604Z,17.90
2018-12-14T21:40:00.075Z,17.90
2018-12-14T21:42:28.680Z,17.80
2018-12-14T21:44:57.160Z,17.70
2018-12-14T21:47:25.648Z,17.70
2018-12-14T21:49:54.263Z,17.70
2018-12-14T21:52:22.926Z,17.70
2018-12-14T21:54:51.450Z,17.60
2018-12-14T21:57:19.934Z,17.60
2018-12-14T21:59:48.439Z,17.60
2018-12-14T22:02:16.935Z,17.60
2018-12-14T22:04:45.410Z,17.60
2018-12-14T22:07:13.896Z,17.60
2018-12-14T22:09:43.283Z,17.60
2018-12-14T22:12:11.933Z,17.60
2018-12-14T22:14:40.471Z,17.50
2018-12-14T22:17:09.078Z,17.50
2018-12-14T22:19:37.548Z,17.60
2018-12-14T22:22:06.038Z,17.50
2018-12-14T22:24:35.408Z,17.60
2018-12-14T22:27:04.017Z,17.60
2018-12-14T22:29:32.639Z,17.60
2018-12-14T22:32:01.342Z,17.60
2018-12-14T22:34:29.960Z,17.60
2018-12-14T22:36:58.478Z,17.50
2018-12-14T22:39:27.395Z,17.50
2018-12-14T22:41:56.027Z,17.40
2018-12-14T22:44:24.656Z,17.40
2018-12-14T22:46:53.144Z,17.30
2018-12-14T22:49:21.662Z,17.30
2018-12-14T22:51:50.146Z,17.30
2018-12-14T22:54:18.766Z,17.30
2018-12-14T22:56:47.591Z,17.20
2018-12-14T22:59:16.082Z,17.20
2018-12-14T23:01:44.615Z,17.20
2018-12-14T23:04:13.282Z,17.10
2018-12-14T23:06:41.947Z,17.10
2018-12-14T23:09:10.469Z,17.00
2018-12-14T23:11:38.966Z,17.00
2018-12-14T23:14:07.463Z,17.00
2018-12-14T23:16:35.968Z,17.00
2018-12-14T23:19:04.504Z,16.90
2018-12-14T23:21:33.142Z,16.90
2018-12-14T23:24:01.745Z,16.90
2018-12-14T23:26:30.234Z,16.80
2018-12-14T23:28:58.739Z,16.80
2018-12-14T23:31:27.214Z,16.70
2018-12-14T23:33:55.852Z,16.70
2018-12-14T23:36:24.466Z,16.70
2018-12-14T23:38:52.959Z,16.70
2018-12-14T23:41:21.446Z,16.70
2018-12-14T23:43:49.942Z,16.70
2018-12-14T23:46:18.562Z,16.70
2018-12-14T23:48:47.234Z,16.70
2018-12-14T23:51:15.745Z,16.70
2018-12-14T23:53:44.466Z,16.60
2018-12-14T23:56:12.973Z,16.60
2018-12-14T23:58:41.472Z,16.60
